SIN weather

Singapore Changi Airport
Singapore, South East, Singapore

Public forecast

Using degrees Celsius for public forecast. Weather courtesy of forecast.io.

METAR (pilot weather report)

Retrieved 2017/04/27 01:00 UTC (4 minutes ago):

WSSS 270100Z 29003KT 230V330 9999 FEW016 BKN300 28/25 Q1012 NOSIG

TAF (pilot weather forecast)

Forecast is more than 12 hours old.

Retrieved 2017/04/26 12:12 UTC (13 hours ago):

TAF WSSS 261100Z 2612/2718 29007KT 9999 FEW018CB SCT020 TEMPO 2701/2705 3000 TSRA FEW012CB BKN015